Archival Weather

Václav Havel Intl Apt

Prague, Czechia (LKPR)

Report from: Monday, May 29, 2023 1:00 PM CEST
Current time: Sunday, July 14, 2024 11:46 AM CEST

Current weather – Weather history – Daily summaries
Weather forecast

Temperature20.0°C (68.0°F)
Dew point2.0°C (35.6°F)
Winds 10 kts (5.1 m/s, 11.5 mph) Vrb
Winds variableWinds variable from North (350°) to East-Northeast (60°)
Clouds Sky clear
Altimeter30.12 in.Hg (1020 mB)
Relative humidity30 %
Density altitude467 ft. (142 m)
Remarks Ceiling and visibility OK
No significant changes expected in the next two hours
Flight conditions Visual Meteorological Conditions
Raw dataLKPR 291100Z 03010KT 350V060 CAVOK 20/02 Q1020 NOSIG
An error has occurred. This application may no longer respond until reloaded. Reload 🗙